Normalville, PA (15469)

9:49 PM EST on February 27, 2017 (GMT -0500)
Fowl Hill - Turkey Point | | Change Station

Elev 1863 ft 40.05 °N, 79.37 °W | Updated 23 seconds ago

Overcast
Overcast
41.4 °F
Feels Like 39 °F
N
4.0
Wind Variable Wind from ENE

Today
High -- | Low -- °F
--% Chance of Precip.
Yesterday
High -- | Low -- °F
Precip. -- in
Pressure 30.29 in
Visibility 1.2 miles
Clouds Overcast 9000 ft
Windchill 39 °F
Dew Point 37 °F
Humidity 86%
Rainfall 0.05 in
Snow Depth Not available.
6:53 AM 6:07 PM
Waxing Crescent, 3% visible
METAR KLBE 280150Z 00000KT 1 1/4SM BR OVC090 03/03 A3029
Pressure 30.29 in
Visibility 1.2 miles
Clouds Overcast 9000 ft
Windchill 39 °F
Dew Point 37 °F
Humidity 86%
Rainfall 0.05 in
Snow Depth Not available.
6:53 AM 6:07 PM
Waxing Crescent, 3% visible
METAR KLBE 280150Z 00000KT 1 1/4SM BR OVC090 03/03 A3029

Get Your Daily Forecast Email!

Thanks for signing up!

Be on the lookout for a verification email in your inbox.

You'll start receiving the daily forecast at 8 AM.

×

10-Day Weather Forecast

Almanac

Astronomy

Feb. 27, 2017 Rise Set
Actual Time
Civil Twilight
Nautical Twilight
Astronomical Twilight
Moon
Length of Visible Light
Length of Day
Tomorrow will be .
, % of the Moon is Illuminated

Today's Extremes

State Highs State Lows

Community

WunderPhotos

Upload Photos

1,962,540 photos uploaded!

WunderBlog® & News

Nearby

Air Quality

  Air Quality AQ Index Pollutant
Not available.

Snow Depth

Station Depth Elevation

Earthquake Activity

City Distance Mag. Time & Date
Minimum magnitude displayed is 2.5.

Coastal Water Temperatures

Place Temperature

Stations

Nearby Weather Stations

Station Location Temp. Windchill Dew Point Humidity Wind Precip. Elev Updated Type
                   

Watches & Warnings

There are currently no watches in effect.